createdAt,value
2023-04-17T00:00:32.792Z,95258.00
2023-04-17T00:01:32.811Z,95260.00
2023-04-17T00:02:32.908Z,95260.00
2023-04-17T00:03:32.952Z,95258.00
2023-04-17T00:04:33.042Z,95258.00
2023-04-17T00:05:32.874Z,95256.00
2023-04-17T00:06:32.857Z,95256.00
2023-04-17T00:07:32.913Z,95256.00
2023-04-17T00:08:32.952Z,95254.00
2023-04-17T00:09:32.960Z,95256.00
2023-04-17T00:10:32.993Z,95254.00
2023-04-17T00:11:32.984Z,95256.00
2023-04-17T00:12:33.005Z,95256.00
2023-04-17T00:13:33.043Z,95254.00
2023-04-17T00:14:33.041Z,95252.00
2023-04-17T00:15:33.101Z,95254.00
2023-04-17T00:16:33.212Z,95260.00
2023-04-17T00:17:33.193Z,95254.00
2023-04-17T00:18:33.132Z,95256.00
2023-04-17T00:19:33.167Z,95258.00
2023-04-17T00:20:33.186Z,95254.00
2023-04-17T00:21:33.165Z,95256.00
2023-04-17T00:22:33.207Z,95254.00
2023-04-17T00:23:33.167Z,95254.00
2023-04-17T00:24:33.213Z,95256.00
2023-04-17T00:25:33.199Z,95254.00
2023-04-17T00:26:33.202Z,95254.00
2023-04-17T00:27:33.209Z,95254.00
2023-04-17T00:28:33.177Z,95256.00
2023-04-17T00:29:33.216Z,95256.00
2023-04-17T00:30:33.229Z,95256.00
2023-04-17T00:31:33.240Z,95256.00
2023-04-17T00:32:33.261Z,95256.00
2023-04-17T00:33:33.297Z,95254.00
2023-04-17T00:34:33.255Z,95254.00
2023-04-17T00:35:33.242Z,95254.00
2023-04-17T00:36:33.264Z,95254.00
2023-04-17T00:37:33.265Z,95254.00
2023-04-17T00:38:33.249Z,95254.00
2023-04-17T00:39:33.283Z,95254.00
2023-04-17T00:40:33.279Z,95252.00
2023-04-17T00:41:33.294Z,95250.00
2023-04-17T00:42:33.318Z,95244.00
2023-04-17T00:43:33.319Z,95250.00
2023-04-17T00:44:33.366Z,95246.00
2023-04-17T00:45:33.448Z,95252.00
2023-04-17T00:46:33.411Z,95246.00
2023-04-17T00:47:33.523Z,95250.00
2023-04-17T00:48:33.451Z,95250.00
2023-04-17T00:49:33.498Z,95246.00
2023-04-17T00:50:33.573Z,95252.00
2023-04-17T00:51:33.489Z,95244.00
2023-04-17T00:52:33.507Z,95246.00
2023-04-17T00:53:33.553Z,95246.00
2023-04-17T00:54:33.518Z,95244.00
2023-04-17T00:55:33.495Z,95242.00
2023-04-17T00:56:33.500Z,95244.00
2023-04-17T00:57:33.557Z,95242.00
2023-04-17T00:58:33.513Z,95242.00
2023-04-17T00:59:33.577Z,95242.00
2023-04-17T01:00:33.562Z,95242.00
2023-04-17T01:01:33.582Z,95242.00
2023-04-17T01:02:33.672Z,95244.00
2023-04-17T01:03:33.747Z,95242.00
2023-04-17T01:04:33.654Z,95242.00
2023-04-17T01:05:33.621Z,95244.00
2023-04-17T01:06:33.588Z,95244.00
2023-04-17T01:07:33.613Z,95244.00
2023-04-17T01:08:33.570Z,95244.00
2023-04-17T01:09:33.590Z,95242.00
2023-04-17T01:10:33.600Z,95242.00
2023-04-17T01:11:33.651Z,95246.00
2023-04-17T01:12:33.638Z,95246.00
2023-04-17T01:13:33.646Z,95244.00
2023-04-17T01:14:33.652Z,95242.00
2023-04-17T01:15:33.675Z,95244.00
2023-04-17T01:16:33.721Z,95250.00
2023-04-17T01:17:33.719Z,95246.00
2023-04-17T01:18:33.650Z,95246.00
2023-04-17T01:19:33.660Z,95246.00
2023-04-17T01:20:33.679Z,95248.00
2023-04-17T01:21:33.658Z,95246.00
2023-04-17T01:22:33.664Z,95246.00
2023-04-17T01:23:33.668Z,95246.00
2023-04-17T01:24:33.686Z,95246.00
2023-04-17T01:25:33.692Z,95244.00
2023-04-17T01:26:33.688Z,95248.00
2023-04-17T01:27:33.678Z,95242.00
2023-04-17T01:28:33.704Z,95242.00
2023-04-17T01:29:33.693Z,95246.00
2023-04-17T01:30:33.732Z,95242.00
2023-04-17T01:31:33.721Z,95244.00
2023-04-17T01:32:33.782Z,95242.00
2023-04-17T01:33:33.749Z,95242.00
2023-04-17T01:34:35.634Z,95238.00
2023-04-17T01:35:33.722Z,95240.00
2023-04-17T01:36:33.741Z,95238.00
2023-04-17T01:37:33.711Z,95238.00
2023-04-17T01:38:33.716Z,95238.00
2023-04-17T01:39:33.703Z,95238.00
2023-04-17T01:40:33.708Z,95236.00
2023-04-17T01:41:33.718Z,95238.00
2023-04-17T01:42:33.663Z,95236.00
2023-04-17T01:43:33.687Z,95236.00
2023-04-17T01:44:33.663Z,95236.00
2023-04-17T01:45:33.680Z,95236.00
2023-04-17T01:46:33.756Z,95236.00
2023-04-17T01:47:33.644Z,95238.00
2023-04-17T01:48:33.640Z,95238.00
2023-04-17T01:49:33.612Z,95238.00
2023-04-17T01:50:33.641Z,95240.00
2023-04-17T01:51:33.612Z,95240.00
2023-04-17T01:52:33.639Z,95238.00
2023-04-17T01:53:33.616Z,95240.00
2023-04-17T01:54:33.623Z,95242.00
2023-04-17T01:55:33.579Z,95242.00
2023-04-17T01:56:33.595Z,95240.00
2023-04-17T01:57:33.589Z,95240.00
2023-04-17T01:58:33.608Z,95238.00
2023-04-17T01:59:33.591Z,95240.00
2023-04-17T02:00:33.573Z,95242.00
2023-04-17T02:01:33.654Z,95242.00
2023-04-17T02:02:33.673Z,95242.00
2023-04-17T02:03:33.707Z,95244.00
2023-04-17T02:04:33.572Z,95242.00
2023-04-17T02:05:33.545Z,95240.00
2023-04-17T02:06:33.527Z,95242.00
2023-04-17T02:07:33.539Z,95240.00
2023-04-17T02:08:33.588Z,95240.00
2023-04-17T02:09:33.515Z,95242.00
2023-04-17T02:10:33.523Z,95240.00
2023-04-17T02:11:33.504Z,95240.00
2023-04-17T02:12:33.491Z,95242.00
2023-04-17T02:13:33.494Z,95240.00
2023-04-17T02:14:33.510Z,95242.00
2023-04-17T02:15:33.613Z,95242.00
2023-04-17T02:16:33.569Z,95240.00
2023-04-17T02:17:33.500Z,95240.00
2023-04-17T02:18:33.472Z,95240.00
2023-04-17T02:19:33.461Z,95242.00
2023-04-17T02:20:33.456Z,95240.00
2023-04-17T02:21:33.443Z,95244.00
2023-04-17T02:22:33.456Z,95242.00
2023-04-17T02:23:33.402Z,95244.00
2023-04-17T02:24:33.428Z,95244.00
2023-04-17T02:25:33.409Z,95246.00
2023-04-17T02:26:33.421Z,95246.00
2023-04-17T02:27:33.386Z,95244.00
2023-04-17T02:28:33.395Z,95246.00
2023-04-17T02:29:33.394Z,95244.00
2023-04-17T02:30:33.406Z,95240.00
2023-04-17T02:31:33.433Z,95242.00
2023-04-17T02:32:33.494Z,95244.00
2023-04-17T02:33:33.359Z,95242.00
2023-04-17T02:34:33.320Z,95242.00
2023-04-17T02:35:33.347Z,95246.00
2023-04-17T02:36:33.344Z,95242.00
2023-04-17T02:37:33.345Z,95242.00
2023-04-17T02:38:33.309Z,95242.00
2023-04-17T02:39:33.281Z,95242.00
2023-04-17T02:40:33.381Z,95242.00
2023-04-17T02:41:33.317Z,95240.00
2023-04-17T02:42:33.300Z,95238.00
2023-04-17T02:43:33.292Z,95240.00
2023-04-17T02:44:33.261Z,95240.00
2023-04-17T02:45:33.285Z,95238.00
2023-04-17T02:46:33.288Z,95240.00
2023-04-17T02:47:33.348Z,95238.00
2023-04-17T02:48:33.262Z,95238.00
2023-04-17T02:49:33.240Z,95240.00
2023-04-17T02:50:33.249Z,95236.00
2023-04-17T02:51:33.217Z,95240.00
2023-04-17T02:52:33.275Z,95240.00
2023-04-17T02:53:33.216Z,95240.00
2023-04-17T02:54:33.195Z,95238.00
2023-04-17T02:55:33.177Z,95240.00
2023-04-17T02:56:33.176Z,95242.00
2023-04-17T02:57:33.192Z,95240.00
2023-04-17T02:58:33.180Z,95242.00
2023-04-17T02:59:33.151Z,95238.00
2023-04-17T03:00:33.212Z,95240.00
2023-04-17T03:01:33.227Z,95240.00
2023-04-17T03:02:33.251Z,95238.00
2023-04-17T03:03:33.266Z,95236.00
2023-04-17T03:04:33.134Z,95240.00
2023-04-17T03:05:33.153Z,95236.00
2023-04-17T03:06:33.143Z,95234.00
2023-04-17T03:07:33.142Z,95236.00
2023-04-17T03:08:33.201Z,95236.00
2023-04-17T03:09:33.117Z,95234.00
2023-04-17T03:10:33.109Z,95236.00
2023-04-17T03:11:33.103Z,95236.00
2023-04-17T03:12:33.187Z,95236.00
2023-04-17T03:13:33.112Z,95236.00
2023-04-17T03:14:33.088Z,95238.00
2023-04-17T03:15:33.079Z,95236.00
2023-04-17T03:16:33.166Z,95240.00
2023-04-17T03:17:33.083Z,95240.00
2023-04-17T03:18:33.041Z,95240.00
2023-04-17T03:19:33.068Z,95240.00
2023-04-17T03:20:33.060Z,95240.00
2023-04-17T03:21:33.043Z,95238.00
2023-04-17T03:22:33.049Z,95238.00
2023-04-17T03:23:33.026Z,95238.00
2023-04-17T03:24:33.019Z,95240.00
2023-04-17T03:25:33.022Z,95240.00
2023-04-17T03:26:32.999Z,95240.00
2023-04-17T03:27:33.007Z,95242.00
2023-04-17T03:28:33.007Z,95244.00
2023-04-17T03:29:33.007Z,95242.00
2023-04-17T03:30:33.002Z,95244.00
2023-04-17T03:31:32.993Z,95242.00
2023-04-17T03:32:32.964Z,95242.00
2023-04-17T03:33:32.937Z,95246.00
2023-04-17T03:34:32.962Z,95246.00
2023-04-17T03:35:32.965Z,95248.00
2023-04-17T03:36:32.954Z,95246.00
2023-04-17T03:37:32.932Z,95248.00
2023-04-17T03:38:32.945Z,95248.00
2023-04-17T03:39:32.921Z,95250.00
2023-04-17T03:40:33.712Z,95250.00
2023-04-17T03:41:32.930Z,95252.00
2023-04-17T03:42:32.902Z,95254.00
2023-04-17T03:43:32.888Z,95254.00
2023-04-17T03:44:32.920Z,95254.00
2023-04-17T03:45:32.925Z,95254.00
2023-04-17T03:46:32.857Z,95258.00
2023-04-17T03:47:32.973Z,95258.00
2023-04-17T03:48:32.871Z,95258.00
2023-04-17T03:49:32.887Z,95258.00
2023-04-17T03:50:32.920Z,95258.00
2023-04-17T03:51:32.864Z,95260.00
2023-04-17T03:52:32.857Z,95262.00
2023-04-17T03:53:32.845Z,95262.00
2023-04-17T03:54:32.834Z,95264.00
2023-04-17T03:55:32.809Z,95266.00
2023-04-17T03:56:32.836Z,95266.00
2023-04-17T03:57:32.835Z,95266.00
2023-04-17T03:58:32.803Z,95266.00
2023-04-17T03:59:32.780Z,95268.00
2023-04-17T04:00:32.767Z,95268.00
2023-04-17T04:01:32.865Z,95269.00
2023-04-17T04:02:32.818Z,95269.00
2023-04-17T04:03:33.025Z,95269.00
2023-04-17T04:04:32.894Z,95268.00
2023-04-17T04:05:32.770Z,95269.00
2023-04-17T04:06:32.816Z,95268.00
2023-04-17T04:07:32.729Z,95268.00
2023-04-17T04:08:32.704Z,95268.00
2023-04-17T04:09:32.771Z,95269.00
2023-04-17T04:10:32.742Z,95268.00
2023-04-17T04:11:32.722Z,95266.00
2023-04-17T04:12:32.707Z,95266.00
2023-04-17T04:13:32.708Z,95264.00
2023-04-17T04:14:32.688Z,95266.00
2023-04-17T04:15:32.683Z,95264.00
2023-04-17T04:16:32.710Z,95264.00
2023-04-17T04:17:32.724Z,95264.00
2023-04-17T04:18:32.659Z,95266.00
2023-04-17T04:19:32.619Z,95266.00
2023-04-17T04:20:32.634Z,95266.00
2023-04-17T04:21:32.646Z,95264.00
2023-04-17T04:22:32.635Z,95264.00
2023-04-17T04:23:32.647Z,95262.00
2023-04-17T04:24:32.601Z,95262.00
2023-04-17T04:25:32.602Z,95264.00
2023-04-17T04:26:32.607Z,95262.00
2023-04-17T04:27:32.621Z,95264.00
2023-04-17T04:28:32.678Z,95264.00
2023-04-17T04:29:32.680Z,95264.00
2023-04-17T04:30:32.693Z,95264.00
2023-04-17T04:31:32.716Z,95264.00
2023-04-17T04:32:32.744Z,95262.00
2023-04-17T04:33:32.774Z,95264.00
2023-04-17T04:34:32.805Z,95262.00
2023-04-17T04:35:32.858Z,95264.00
2023-04-17T04:36:32.849Z,95262.00
2023-04-17T04:37:32.847Z,95264.00
2023-04-17T04:38:33.130Z,95264.00
2023-04-17T04:39:32.864Z,95262.00
2023-04-17T04:40:32.907Z,95262.00
2023-04-17T04:41:32.961Z,95262.00
2023-04-17T04:42:32.985Z,95262.00
2023-04-17T04:43:32.962Z,95262.00
2023-04-17T04:44:32.992Z,95262.00
2023-04-17T04:45:32.973Z,95260.00
2023-04-17T04:46:33.039Z,95262.00
2023-04-17T04:47:33.039Z,95262.00
2023-04-17T04:48:33.030Z,95260.00
2023-04-17T04:49:32.982Z,95264.00
2023-04-17T04:50:33.023Z,95266.00
2023-04-17T04:51:33.034Z,95264.00
2023-04-17T04:52:33.025Z,95268.00
2023-04-17T04:53:33.024Z,95268.00
2023-04-17T04:54:32.996Z,95269.00
2023-04-17T04:55:32.985Z,95268.00
2023-04-17T04:56:33.179Z,95271.00
2023-04-17T04:57:33.020Z,95269.00
2023-04-17T04:58:32.996Z,95271.00
2023-04-17T04:59:33.014Z,95273.00
2023-04-17T05:00:33.013Z,95273.00
2023-04-17T05:01:33.118Z,95273.00
2023-04-17T05:02:33.160Z,95271.00
2023-04-17T05:03:33.176Z,95271.00
2023-04-17T05:04:33.109Z,95271.00
2023-04-17T05:05:33.034Z,95273.00
2023-04-17T05:06:33.059Z,95271.00
2023-04-17T05:07:33.037Z,95273.00
2023-04-17T05:08:33.062Z,95279.00
2023-04-17T05:09:33.022Z,95275.00
2023-04-17T05:10:33.081Z,95275.00
2023-04-17T05:11:33.077Z,95277.00
2023-04-17T05:12:33.050Z,95275.00
2023-04-17T05:13:33.081Z,95275.00
2023-04-17T05:14:33.078Z,95277.00
2023-04-17T05:15:33.109Z,95277.00
2023-04-17T05:16:33.145Z,95281.00
2023-04-17T05:17:33.109Z,95281.00
2023-04-17T05:18:33.125Z,95281.00
2023-04-17T05:19:33.124Z,95285.00
2023-04-17T05:20:33.096Z,95283.00
2023-04-17T05:21:33.101Z,95285.00
2023-04-17T05:22:33.088Z,95285.00
2023-04-17T05:23:33.102Z,95285.00
2023-04-17T05:24:33.136Z,95285.00
2023-04-17T05:25:33.096Z,95285.00
2023-04-17T05:26:33.082Z,95287.00
2023-04-17T05:27:33.099Z,95291.00
2023-04-17T05:28:33.110Z,95289.00
2023-04-17T05:29:33.097Z,95295.00
2023-04-17T05:30:33.086Z,95295.00
2023-04-17T05:31:33.162Z,95291.00
2023-04-17T05:32:33.103Z,95295.00
2023-04-17T05:33:33.091Z,95297.00
2023-04-17T05:34:33.103Z,95297.00
2023-04-17T05:35:33.142Z,95295.00
2023-04-17T05:36:33.119Z,95297.00
2023-04-17T05:37:33.112Z,95299.00
2023-04-17T05:38:33.136Z,95299.00
2023-04-17T05:39:33.103Z,95295.00
2023-04-17T05:40:33.142Z,95297.00
2023-04-17T05:41:33.247Z,95297.00
2023-04-17T05:42:33.114Z,95299.00
2023-04-17T05:43:33.092Z,95297.00
2023-04-17T05:44:33.140Z,95297.00
2023-04-17T05:45:33.132Z,95297.00
2023-04-17T05:46:33.216Z,95299.00
2023-04-17T05:47:33.167Z,95299.00
2023-04-17T05:48:33.130Z,95303.00
2023-04-17T05:49:33.125Z,95303.00
2023-04-17T05:50:33.125Z,95301.00
2023-04-17T05:51:33.249Z,95301.00
2023-04-17T05:52:33.156Z,95301.00
2023-04-17T05:53:33.185Z,95297.00
2023-04-17T05:54:33.178Z,95299.00
2023-04-17T05:55:33.167Z,95299.00
2023-04-17T05:56:33.245Z,95301.00
2023-04-17T05:57:33.181Z,95303.00
2023-04-17T05:58:33.174Z,95297.00
2023-04-17T05:59:33.149Z,95299.00
2023-04-17T06:00:33.152Z,95297.00
2023-04-17T06:01:33.168Z,95301.00
2023-04-17T06:02:33.349Z,95299.00
2023-04-17T06:03:33.466Z,95299.00
2023-04-17T06:04:33.669Z,95303.00
2023-04-17T06:05:33.395Z,95303.00
2023-04-17T06:06:33.379Z,95305.00
2023-04-17T06:07:33.439Z,95307.00
2023-04-17T06:08:33.476Z,95311.00
2023-04-17T06:09:33.591Z,95303.00
2023-04-17T06:10:33.609Z,95305.00
2023-04-17T06:11:33.625Z,95307.00
2023-04-17T06:12:33.649Z,95313.00
2023-04-17T06:13:33.690Z,95311.00
2023-04-17T06:14:33.721Z,95313.00
2023-04-17T06:15:33.722Z,95311.00
2023-04-17T06:16:33.863Z,95315.00
2023-04-17T06:17:33.907Z,95313.00
2023-04-17T06:18:33.807Z,95316.00
2023-04-17T06:19:33.848Z,95316.00
2023-04-17T06:20:33.878Z,95313.00
2023-04-17T06:21:33.868Z,95316.00
2023-04-17T06:22:33.872Z,95316.00
2023-04-17T06:23:33.858Z,95316.00
2023-04-17T06:24:33.866Z,95316.00
2023-04-17T06:25:33.881Z,95318.00
2023-04-17T06:26:34.228Z,95318.00
2023-04-17T06:27:36.382Z,95322.00
2023-04-17T06:28:33.901Z,95322.00
2023-04-17T06:29:33.876Z,95322.00
2023-04-17T06:30:33.976Z,95322.00
2023-04-17T06:31:33.911Z,95324.00
2023-04-17T06:32:33.882Z,95328.00
2023-04-17T06:33:33.896Z,95326.00
2023-04-17T06:34:33.840Z,95326.00
2023-04-17T06:35:33.829Z,95324.00
2023-04-17T06:36:33.818Z,95330.00
2023-04-17T06:37:33.830Z,95324.00
2023-04-17T06:38:33.797Z,95332.00
2023-04-17T06:39:33.799Z,95330.00
2023-04-17T06:40:33.810Z,95326.00
2023-04-17T06:41:33.767Z,95334.00
2023-04-17T06:42:33.805Z,95332.00
2023-04-17T06:43:33.755Z,95334.00
2023-04-17T06:44:33.770Z,95332.00
2023-04-17T06:45:33.783Z,95332.00
2023-04-17T06:46:34.271Z,95334.00
2023-04-17T06:47:33.808Z,95330.00
2023-04-17T06:48:33.721Z,95334.00
2023-04-17T06:49:33.744Z,95334.00
2023-04-17T06:50:33.699Z,95332.00
2023-04-17T06:51:33.693Z,95334.00
2023-04-17T06:52:33.741Z,95332.00
2023-04-17T06:53:33.699Z,95336.00
2023-04-17T06:54:33.672Z,95336.00
2023-04-17T06:55:33.715Z,95334.00
2023-04-17T06:56:33.695Z,95334.00
2023-04-17T06:57:33.662Z,95336.00
2023-04-17T06:58:33.649Z,95336.00
2023-04-17T06:59:33.660Z,95336.00
2023-04-17T07:00:33.652Z,95336.00
2023-04-17T07:01:33.656Z,95336.00
2023-04-17T07:02:33.722Z,95336.00
2023-04-17T07:03:33.983Z,95336.00
2023-04-17T07:04:33.669Z,95336.00
2023-04-17T07:05:33.609Z,95336.00
2023-04-17T07:06:33.606Z,95338.00
2023-04-17T07:07:33.600Z,95336.00
2023-04-17T07:08:33.609Z,95334.00
2023-04-17T07:09:33.579Z,95336.00
2023-04-17T07:10:33.566Z,95340.00
2023-04-17T07:11:33.579Z,95336.00
2023-04-17T07:12:33.678Z,95338.00
2023-04-17T07:13:33.564Z,95340.00
2023-04-17T07:14:33.608Z,95342.00
2023-04-17T07:15:33.616Z,95346.00
2023-04-17T07:16:33.578Z,95346.00
2023-04-17T07:17:33.574Z,95344.00
2023-04-17T07:18:33.521Z,95346.00
2023-04-17T07:19:33.549Z,95346.00
2023-04-17T07:20:33.505Z,95346.00
2023-04-17T07:21:33.499Z,95350.00
2023-04-17T07:22:33.498Z,95350.00
2023-04-17T07:23:33.471Z,95350.00
2023-04-17T07:24:33.477Z,95350.00
2023-04-17T07:25:33.509Z,95340.00
2023-04-17T07:26:33.475Z,95350.00
2023-04-17T07:27:33.463Z,95352.00
2023-04-17T07:28:33.452Z,95352.00
2023-04-17T07:29:33.437Z,95350.00
2023-04-17T07:30:33.442Z,95352.00
2023-04-17T07:31:33.447Z,95352.00
2023-04-17T07:32:33.439Z,95350.00
2023-04-17T07:33:33.429Z,95352.00
2023-04-17T07:34:33.407Z,95352.00
2023-04-17T07:35:33.408Z,95352.00
2023-04-17T07:36:33.388Z,95352.00
2023-04-17T07:37:33.413Z,95354.00
2023-04-17T07:38:33.401Z,95356.00
2023-04-17T07:39:33.358Z,95356.00
2023-04-17T07:40:33.375Z,95350.00
2023-04-17T07:41:33.370Z,95352.00
2023-04-17T07:42:33.765Z,95354.00
2023-04-17T07:43:33.366Z,95350.00
2023-04-17T07:44:33.585Z,95352.00
2023-04-17T07:45:33.432Z,95352.00
2023-04-17T07:46:33.511Z,95352.00
2023-04-17T07:47:33.834Z,95352.00
2023-04-17T07:48:33.596Z,95354.00
2023-04-17T07:49:33.630Z,95350.00
2023-04-17T07:50:33.667Z,95352.00
2023-04-17T07:51:33.707Z,95350.00
2023-04-17T07:52:33.834Z,95352.00
2023-04-17T07:53:33.834Z,95350.00
2023-04-17T07:54:33.881Z,95354.00
2023-04-17T07:55:33.881Z,95348.00
2023-04-17T07:56:33.920Z,95348.00
2023-04-17T07:57:33.964Z,95346.00
2023-04-17T07:58:33.988Z,95346.00
2023-04-17T07:59:34.024Z,95346.00
2023-04-17T08:00:34.041Z,95348.00
2023-04-17T08:01:34.085Z,95348.00
2023-04-17T08:02:34.174Z,95346.00
2023-04-17T08:03:34.460Z,95352.00
2023-04-17T08:04:34.443Z,95350.00
2023-04-17T08:05:34.177Z,95352.00
2023-04-17T08:06:34.183Z,95352.00
2023-04-17T08:07:34.243Z,95354.00
2023-04-17T08:08:34.251Z,95352.00
2023-04-17T08:09:34.274Z,95352.00
2023-04-17T08:10:34.319Z,95350.00
2023-04-17T08:11:40.156Z,95352.00
2023-04-17T08:12:35.778Z,95352.00
2023-04-17T08:13:34.377Z,95352.00
2023-04-17T08:14:34.331Z,95352.00
2023-04-17T08:15:34.293Z,95354.00
2023-04-17T08:16:34.528Z,95352.00
2023-04-17T08:17:34.488Z,95352.00
2023-04-17T08:18:34.313Z,95352.00
2023-04-17T08:19:34.278Z,95350.00
2023-04-17T08:20:34.268Z,95348.00
2023-04-17T08:21:34.288Z,95350.00
2023-04-17T08:22:34.263Z,95350.00
2023-04-17T08:23:34.284Z,95350.00
2023-04-17T08:24:34.257Z,95350.00
2023-04-17T08:25:34.240Z,95348.00
2023-04-17T08:26:34.212Z,95348.00
2023-04-17T08:27:34.235Z,95348.00
2023-04-17T08:28:34.250Z,95344.00
2023-04-17T08:29:41.526Z,95346.00
2023-04-17T08:30:34.205Z,95342.00
2023-04-17T08:31:34.229Z,95342.00
2023-04-17T08:32:34.369Z,95340.00
2023-04-17T08:33:34.177Z,95338.00
2023-04-17T08:34:34.186Z,95334.00
2023-04-17T08:35:34.182Z,95334.00
2023-04-17T08:36:34.139Z,95338.00
2023-04-17T08:37:34.293Z,95332.00
2023-04-17T08:38:34.142Z,95334.00
2023-04-17T08:39:34.142Z,95334.00
2023-04-17T08:40:34.150Z,95338.00
2023-04-17T08:41:34.155Z,95326.00
2023-04-17T08:42:34.121Z,95332.00
2023-04-17T08:43:34.082Z,95330.00
2023-04-17T08:44:34.096Z,95328.00
2023-04-17T08:45:34.090Z,95332.00
2023-04-17T08:46:34.108Z,95330.00
2023-04-17T08:47:34.407Z,95332.00
2023-04-17T08:48:34.124Z,95326.00
2023-04-17T08:49:34.082Z,95324.00
2023-04-17T08:50:34.088Z,95328.00
2023-04-17T08:51:34.064Z,95315.00
2023-04-17T08:52:34.329Z,95322.00
2023-04-17T08:53:34.080Z,95322.00
2023-04-17T08:54:34.044Z,95324.00
2023-04-17T08:55:34.042Z,95324.00
2023-04-17T08:56:34.039Z,95322.00
2023-04-17T08:57:34.008Z,95324.00
2023-04-17T08:58:34.036Z,95326.00
2023-04-17T08:59:34.035Z,95322.00
2023-04-17T09:00:34.012Z,95322.00
2023-04-17T09:01:34.106Z,95320.00
2023-04-17T09:02:34.040Z,95320.00
2023-04-17T09:03:34.170Z,95318.00
2023-04-17T09:04:34.124Z,95315.00
2023-04-17T09:05:33.985Z,95315.00
2023-04-17T09:06:33.972Z,95318.00
2023-04-17T09:07:34.345Z,95311.00
2023-04-17T09:08:33.949Z,95311.00
2023-04-17T09:09:33.973Z,95311.00
2023-04-17T09:10:33.923Z,95309.00
2023-04-17T09:11:33.910Z,95311.00
2023-04-17T09:12:33.926Z,95307.00
2023-04-17T09:13:33.939Z,95307.00
2023-04-17T09:14:33.924Z,95305.00
2023-04-17T09:15:34.002Z,95311.00
2023-04-17T09:16:33.926Z,95309.00
2023-04-17T09:17:33.891Z,95307.00
2023-04-17T09:18:33.942Z,95313.00
2023-04-17T09:19:35.197Z,95309.00
2023-04-17T09:20:34.060Z,95305.00
2023-04-17T09:21:34.061Z,95307.00
2023-04-17T09:22:34.117Z,95303.00
2023-04-17T09:23:34.227Z,95303.00
2023-04-17T09:24:34.188Z,95303.00
2023-04-17T09:25:34.204Z,95303.00
2023-04-17T09:26:34.229Z,95299.00
2023-04-17T09:27:34.382Z,95301.00
2023-04-17T09:28:34.277Z,95305.00
2023-04-17T09:29:34.280Z,95305.00
2023-04-17T09:30:34.520Z,95307.00
2023-04-17T09:31:34.467Z,95305.00
2023-04-17T09:32:34.397Z,95303.00
2023-04-17T09:33:34.290Z,95305.00
2023-04-17T09:34:34.337Z,95303.00
2023-04-17T09:35:35.836Z,95299.00
2023-04-17T09:36:34.413Z,95299.00
2023-04-17T09:37:34.295Z,95301.00
2023-04-17T09:38:34.301Z,95297.00
2023-04-17T09:39:34.287Z,95303.00
2023-04-17T09:40:34.308Z,95303.00
2023-04-17T09:41:34.307Z,95297.00
2023-04-17T09:42:34.373Z,95301.00
2023-04-17T09:43:34.253Z,95297.00
2023-04-17T09:44:34.303Z,95301.00
2023-04-17T09:45:34.243Z,95301.00
2023-04-17T09:46:34.370Z,95301.00
2023-04-17T09:47:34.391Z,95299.00
2023-04-17T09:48:34.213Z,95303.00
2023-04-17T09:49:34.248Z,95303.00
2023-04-17T09:50:35.882Z,95299.00
2023-04-17T09:51:34.217Z,95301.00
2023-04-17T09:52:34.236Z,95297.00
2023-04-17T09:53:34.181Z,95299.00
2023-04-17T09:54:34.205Z,95301.00
2023-04-17T09:55:34.179Z,95299.00
2023-04-17T09:56:34.199Z,95299.00
2023-04-17T09:57:34.169Z,95299.00
2023-04-17T09:58:34.160Z,95301.00
2023-04-17T09:59:34.161Z,95305.00
2023-04-17T10:00:34.187Z,95305.00
2023-04-17T10:01:34.146Z,95303.00
2023-04-17T10:02:34.220Z,95299.00
2023-04-17T10:03:37.128Z,95305.00
2023-04-17T10:04:34.141Z,95303.00
2023-04-17T10:05:34.113Z,95303.00
2023-04-17T10:06:34.202Z,95307.00
2023-04-17T10:07:34.145Z,95305.00
2023-04-17T10:08:34.268Z,95307.00
2023-04-17T10:09:34.090Z,95303.00
2023-04-17T10:10:34.366Z,95301.00
2023-04-17T10:11:34.126Z,95303.00
2023-04-17T10:12:34.896Z,95303.00
2023-04-17T10:13:34.062Z,95297.00
2023-04-17T10:14:34.094Z,95297.00
2023-04-17T10:15:34.112Z,95295.00
2023-04-17T10:16:34.125Z,95295.00
2023-04-17T10:17:34.506Z,95295.00
2023-04-17T10:18:34.045Z,95293.00
2023-04-17T10:19:34.041Z,95295.00
2023-04-17T10:20:33.997Z,95293.00
2023-04-17T10:21:34.000Z,95295.00
2023-04-17T10:22:34.014Z,95291.00
2023-04-17T10:23:33.970Z,95293.00
2023-04-17T10:24:33.989Z,95293.00
2023-04-17T10:25:33.985Z,95291.00
2023-04-17T10:26:33.953Z,95295.00
2023-04-17T10:27:33.996Z,95291.00
2023-04-17T10:28:33.963Z,95293.00
2023-04-17T10:29:33.976Z,95291.00
2023-04-17T10:30:33.977Z,95293.00
2023-04-17T10:31:34.026Z,95293.00
2023-04-17T10:32:34.004Z,95293.00
2023-04-17T10:33:33.924Z,95291.00
2023-04-17T10:34:33.917Z,95287.00
2023-04-17T10:35:33.944Z,95291.00
2023-04-17T10:36:33.945Z,95287.00
2023-04-17T10:37:34.357Z,95287.00
2023-04-17T10:38:33.980Z,95287.00
2023-04-17T10:39:34.094Z,95281.00
2023-04-17T10:40:34.127Z,95283.00
2023-04-17T10:41:34.158Z,95287.00
2023-04-17T10:42:34.216Z,95285.00
2023-04-17T10:43:34.283Z,95289.00
2023-04-17T10:44:34.351Z,95285.00
2023-04-17T10:45:34.371Z,95283.00
2023-04-17T10:46:34.487Z,95285.00
2023-04-17T10:47:34.507Z,95285.00
2023-04-17T10:48:34.534Z,95283.00
2023-04-17T10:49:34.552Z,95281.00
2023-04-17T10:50:35.358Z,95281.00
2023-04-17T10:51:34.639Z,95279.00
2023-04-17T10:52:34.861Z,95277.00
2023-04-17T10:53:34.761Z,95277.00
2023-04-17T10:54:34.784Z,95275.00
2023-04-17T10:55:34.811Z,95279.00
2023-04-17T10:56:34.858Z,95279.00
2023-04-17T10:57:34.919Z,95279.00
2023-04-17T10:58:34.952Z,95277.00
2023-04-17T10:59:35.865Z,95275.00
2023-04-17T11:00:35.045Z,95277.00
2023-04-17T11:01:35.121Z,95281.00
2023-04-17T11:02:35.179Z,95279.00
2023-04-17T11:03:35.169Z,95279.00
2023-04-17T11:04:35.296Z,95277.00
2023-04-17T11:05:35.207Z,95275.00
2023-04-17T11:06:35.258Z,95273.00
2023-04-17T11:07:35.321Z,95273.00
2023-04-17T11:08:35.326Z,95273.00
2023-04-17T11:09:35.353Z,95275.00
2023-04-17T11:10:35.366Z,95271.00
2023-04-17T11:12:35.395Z,95275.00
2023-04-17T11:13:35.353Z,95273.00
2023-04-17T11:14:35.363Z,95273.00
2023-04-17T11:15:35.360Z,95273.00
2023-04-17T11:16:35.355Z,95273.00
2023-04-17T11:17:35.400Z,95275.00
2023-04-17T11:18:35.366Z,95277.00
2023-04-17T11:19:35.341Z,95277.00
2023-04-17T11:20:35.319Z,95277.00
2023-04-17T11:21:35.316Z,95277.00
2023-04-17T11:22:35.308Z,95277.00
2023-04-17T11:23:35.309Z,95279.00
2023-04-17T11:24:35.304Z,95279.00
2023-04-17T11:25:35.310Z,95281.00
2023-04-17T11:26:35.283Z,95281.00
2023-04-17T11:27:35.286Z,95281.00
2023-04-17T11:28:35.313Z,95281.00
2023-04-17T11:29:35.253Z,95281.00
2023-04-17T11:30:35.375Z,95281.00
2023-04-17T11:31:35.388Z,95281.00
2023-04-17T11:32:35.409Z,95279.00
2023-04-17T11:33:35.890Z,95281.00
2023-04-17T11:34:35.440Z,95281.00
2023-04-17T11:35:35.473Z,95281.00
2023-04-17T11:36:35.538Z,95281.00
2023-04-17T11:37:35.553Z,95281.00
2023-04-17T11:38:35.880Z,95283.00
2023-04-17T11:39:35.647Z,95281.00
2023-04-17T11:40:35.711Z,95281.00
2023-04-17T11:41:35.725Z,95279.00
2023-04-17T11:42:35.768Z,95279.00
2023-04-17T11:43:35.783Z,95279.00
2023-04-17T11:44:35.819Z,95277.00
2023-04-17T11:45:35.874Z,95277.00